Time;durP1;ratioP1;P1;durP2;ratioP2;P2;SDS_P1;SDS_P2;PMS_P1;PMS_P2;Temp;Humidity;BMP_temperature;BMP_pressure;BME280_temperature;BME280_humidity;BME280_pressure;Samples;Min_cycle;Max_cycle;Signal;HPM_P1;HPM_P2
2022/05/29 00:01:19;;;;;;;5.22;1.98;;;;;;;8.87;nan;101796.38;5055396;28;20029;-57
2022/05/29 00:03:44;;;;;;;11.73;2.80;;;;;;;8.67;nan;101762.41;5055228;28;20079;-58
2022/05/29 00:06:11;;;;;;;9.35;2.50;;;;;;;8.90;nan;101797.19;5055358;28;20040;-57
2022/05/29 00:08:38;;;;;;;8.55;2.85;;;;;;;8.56;nan;101732.78;5037280;28;20427;-55
2022/05/29 00:11:07;;;;;;;7.03;1.65;;;;;;;8.50;nan;101711.84;5037295;28;20037;-55
2022/05/29 00:13:32;;;;;;;7.00;1.95;;;;;;;9.00;nan;101792.72;5037354;28;20476;-57
2022/05/29 00:15:58;;;;;;;9.00;2.13;;;;;;;9.09;nan;101794.38;5037325;28;20099;-60
2022/05/29 00:18:25;;;;;;;7.60;2.08;;;;;;;9.19;nan;101806.53;5037465;28;20082;-55
2022/05/29 00:20:53;;;;;;;7.95;1.83;;;;;;;9.25;nan;101788.91;5037648;28;20044;-58
2022/05/29 00:23:19;;;;;;;6.15;1.85;;;;;;;9.33;nan;101794.09;5036957;28;20107;-59
2022/05/29 00:25:48;;;;;;;8.05;2.38;;;;;;;9.09;nan;101749.72;5054922;28;20025;-57
2022/05/29 00:28:13;;;;;;;10.20;2.03;;;;;;;9.30;nan;101787.13;5036960;28;20036;-55
2022/05/29 00:30:40;;;;;;;6.30;2.80;;;;;;;9.01;nan;101729.69;5055000;28;20025;-55
2022/05/29 00:33:06;;;;;;;5.75;1.75;;;;;;;9.36;nan;101789.66;5054513;28;20037;-55
2022/05/29 00:35:31;;;;;;;10.30;1.75;;;;;;;9.42;nan;101799.22;5036785;28;20464;-56
2022/05/29 00:37:57;;;;;;;6.13;1.75;;;;;;;9.03;nan;101722.66;5020253;28;20036;-60
2022/05/29 00:40:31;;;;;;;8.52;2.05;;;;;;;9.39;nan;101789.63;5054265;28;20475;-55
2022/05/29 00:42:56;;;;;;;4.10;1.48;;;;;;;9.35;nan;101784.41;5054422;28;20052;-53
2022/05/29 00:45:22;;;;;;;4.15;1.33;;;;;;;9.28;nan;101801.16;5054372;28;20036;-56
2022/05/29 00:47:48;;;;;;;5.53;1.58;;;;;;;9.14;nan;101780.28;5036470;28;20028;-56
2022/05/29 00:50:18;;;;;;;3.63;1.10;;;;;;;9.03;nan;101772.53;5054229;28;20396;-54
2022/05/29 00:52:43;;;;;;;5.60;1.48;;;;;;;8.68;nan;101714.28;5050273;28;20128;-57
2022/05/29 00:55:15;;;;;;;10.20;2.13;;;;;;;8.94;nan;101763.88;5074089;28;20024;-59
2022/05/29 00:57:46;;;;;;;5.55;2.08;;;;;;;8.84;nan;101757.84;5074425;28;20032;-60
2022/05/29 01:00:18;;;;;;;6.65;1.70;;;;;;;8.63;nan;101725.72;5073010;28;20074;-57
2022/05/29 01:02:44;;;;;;;4.25;1.30;;;;;;;8.79;nan;101750.91;5072881;28;20032;-52
2022/05/29 01:05:13;;;;;;;6.13;1.70;;;;;;;8.49;nan;101700.47;5073889;28;20448;-53
2022/05/29 01:07:43;;;;;;;6.38;1.92;;;;;;;8.51;nan;101721.47;5073116;28;20476;-56
2022/05/29 01:10:08;;;;;;;5.00;1.83;;;;;;;8.67;nan;101751.06;5074181;28;20039;-58
2022/05/29 01:12:40;;;;;;;8.02;2.30;;;;;;;8.65;nan;101745.81;5073970;28;20037;-57
2022/05/29 01:15:37;;;;;;;8.85;2.13;;;;;;;8.65;nan;101737.94;5072625;28;20486;-59
2022/05/29 01:18:19;;;;;;;8.70;1.77;;;;;;;8.66;nan;101741.44;5073884;28;20103;-56
2022/05/29 01:21:09;;;;;;;9.50;2.83;;;;;;;8.76;nan;101732.56;5072733;28;20036;-60
2022/05/29 01:23:37;;;;;;;6.90;2.20;;;;;;;8.86;nan;101731.59;5073550;28;20036;-52
2022/05/29 01:26:09;;;;;;;9.02;1.95;;;;;;;8.93;nan;101734.13;5073405;28;20042;-54
2022/05/29 01:28:44;;;;;;;8.27;2.30;;;;;;;8.77;nan;101673.94;5073373;28;20039;-58
2022/05/29 01:31:48;;;;;;;9.88;2.60;;;;;;;9.15;nan;101729.50;5072362;28;20060;-52
2022/05/29 01:34:29;;;;;;;10.00;2.08;;;;;;;9.26;nan;101722.34;5069745;28;20093;-59
2022/05/29 01:37:27;;;;;;;9.25;3.15;;;;;;;9.36;nan;101710.84;5073442;28;20032;-55
2022/05/29 01:40:03;;;;;;;6.30;2.45;;;;;;;9.44;nan;101714.22;5072153;28;20024;-55
2022/05/29 01:42:28;;;;;;;8.40;2.58;;;;;;;9.47;nan;101715.94;5072200;28;20036;-56
2022/05/29 01:45:16;;;;;;;7.22;2.00;;;;;;;9.52;nan;101714.97;5073020;28;20437;-61
2022/05/29 01:47:43;;;;;;;7.93;2.35;;;;;;;9.53;nan;101711.47;5071456;28;20097;-58
2022/05/29 01:50:14;;;;;;;12.57;2.88;;;;;;;9.56;nan;101707.94;5071548;28;20028;-59
2022/05/29 01:52:43;;;;;;;8.85;2.05;;;;;;;9.56;nan;101702.69;5071612;28;20040;-57
2022/05/29 01:55:19;;;;;;;7.55;2.72;;;;;;;9.37;nan;101664.41;5071614;28;20085;-55
2022/05/29 01:57:48;;;;;;;10.85;2.53;;;;;;;9.23;nan;101625.19;5072994;28;20032;-61
2022/05/29 02:00:17;;;;;;;9.63;2.10;;;;;;;9.72;nan;101709.44;5072859;28;20082;-58
2022/05/29 02:02:48;;;;;;;5.97;2.10;;;;;;;9.79;nan;101691.81;5071557;28;20123;-59
2022/05/29 02:05:23;;;;;;;5.68;1.63;;;;;;;9.57;nan;101641.34;5069822;28;20079;-57
2022/05/29 02:07:53;;;;;;;10.60;2.47;;;;;;;9.86;nan;101681.19;5071110;28;20025;-59
2022/05/29 02:10:26;;;;;;;10.30;2.05;;;;;;;10.01;nan;101704.59;5071232;28;20088;-54
2022/05/29 02:13:02;;;;;;;4.45;1.60;;;;;;;9.83;nan;101652.31;5071313;28;20036;-58
2022/05/29 02:15:33;;;;;;;7.13;2.10;;;;;;;10.09;nan;101692.19;5072258;28;20032;-56
2022/05/29 02:18:02;;;;;;;6.28;1.63;;;;;;;9.77;nan;101628.75;5072306;28;20032;-58
2022/05/29 02:20:32;;;;;;;5.85;1.63;;;;;;;9.96;nan;101652.94;5071071;28;20028;-56
2022/05/29 02:23:10;;;;;;;6.25;1.63;;;;;;;9.81;nan;101632.16;5071098;28;20028;-55
2022/05/29 02:25:37;;;;;;;11.85;1.95;;;;;;;9.86;nan;101631.22;5071039;28;20376;-58
2022/05/29 02:28:26;;;;;;;9.35;1.95;;;;;;;10.27;nan;101692.81;5071036;28;20115;-61
2022/05/29 02:31:13;;;;;;;9.80;2.00;;;;;;;10.27;nan;101680.53;5072113;28;20036;-60
2022/05/29 02:33:56;;;;;;;8.77;1.67;;;;;;;10.31;nan;101686.56;5071989;28;20035;-55
2022/05/29 02:36:30;;;;;;;7.63;1.60;;;;;;;10.03;nan;101634.44;5072061;28;20150;-59
2022/05/29 02:39:23;;;;;;;8.10;2.35;;;;;;;10.34;nan;101683.88;5070810;28;20361;-59
2022/05/29 02:42:13;;;;;;;7.10;2.03;;;;;;;10.31;nan;101676.91;5070682;28;20062;-56
2022/05/29 02:44:42;;;;;;;5.72;1.92;;;;;;;10.35;nan;101683.00;5030438;28;20112;-58
2022/05/29 02:47:25;;;;;;;5.60;1.80;;;;;;;10.32;nan;101678.66;5072063;28;20028;-55
2022/05/29 02:49:53;;;;;;;5.13;2.08;;;;;;;10.37;nan;101666.28;5070600;28;20115;-55
2022/05/29 02:52:19;;;;;;;8.07;1.67;;;;;;;10.38;nan;101675.06;5066441;28;20511;-57
2022/05/29 02:54:44;;;;;;;8.35;1.85;;;;;;;10.03;nan;101618.66;5051937;28;20067;-52
2022/05/29 02:57:10;;;;;;;4.75;1.65;;;;;;;10.39;nan;101689.97;5034037;28;20086;-59
2022/05/29 02:59:43;;;;;;;5.60;1.58;;;;;;;9.91;nan;101612.72;5051872;28;20046;-58
2022/05/29 03:02:39;;;;;;;3.80;1.60;;;;;;;10.35;nan;101686.50;5033957;28;20032;-60
2022/05/29 03:05:16;;;;;;;4.10;1.25;;;;;;;9.91;nan;101629.38;5051664;28;20217;-56
2022/05/29 03:08:27;;;;;;;5.50;1.40;;;;;;;10.24;nan;101677.94;5051703;28;20080;-57
2022/05/29 03:10:58;;;;;;;4.18;1.08;;;;;;;10.19;nan;101692.91;5013290;28;20040;-54
2022/05/29 03:13:32;;;;;;;;;;;;;;;10.11;nan;101700.91;5017746;28;20033;-55
2022/05/29 03:16:11;;;;;;;6.30;1.05;;;;;;;10.08;nan;101702.72;5034000;28;19959;-58
2022/05/29 03:19:11;;;;;;;4.47;1.20;;;;;;;9.98;nan;101680.97;5037653;28;20044;-56
2022/05/29 03:21:41;;;;;;;3.92;1.50;;;;;;;9.81;nan;101653.19;5055838;28;20052;-56
2022/05/29 03:24:18;;;;;;;14.32;1.95;;;;;;;9.78;nan;101654.13;5055573;28;20048;-56
2022/05/29 03:27:01;;;;;;;9.85;1.90;;;;;;;9.80;nan;101681.28;5021231;28;20029;-58
2022/05/29 03:29:49;;;;;;;6.55;1.67;;;;;;;9.73;nan;101660.34;5055937;28;20102;-52
2022/05/29 03:32:14;;;;;;;7.68;2.22;;;;;;;9.66;nan;101664.00;5055522;28;20376;-53
2022/05/29 03:34:40;;;;;;;8.77;2.03;;;;;;;9.52;nan;101649.28;5055235;28;20135;-55
2022/05/29 03:37:06;;;;;;;4.55;2.03;;;;;;;9.60;nan;101655.28;5055246;28;20396;-58
2022/05/29 03:39:32;;;;;;;6.50;1.83;;;;;;;9.26;nan;101587.50;5037407;28;20376;-55
2022/05/29 03:41:57;;;;;;;6.65;1.77;;;;;;;9.59;nan;101640.41;5055276;28;20032;-56
2022/05/29 03:44:24;;;;;;;7.65;2.20;;;;;;;9.55;nan;101630.84;5055501;28;20047;-57
2022/05/29 03:46:49;;;;;;;11.73;2.33;;;;;;;9.54;nan;101618.56;5055087;28;20115;-54
2022/05/29 03:49:17;;;;;;;7.60;1.90;;;;;;;9.58;nan;101632.53;5055181;28;20120;-56
2022/05/29 03:51:43;;;;;;;6.95;2.20;;;;;;;9.58;nan;101628.16;5036991;28;20025;-57
2022/05/29 03:54:09;;;;;;;8.13;2.58;;;;;;;9.58;nan;101622.91;5055060;28;20043;-54
2022/05/29 03:56:35;;;;;;;18.20;3.20;;;;;;;9.25;nan;101556.88;5055162;28;20029;-57
2022/05/29 03:59:01;;;;;;;10.63;2.60;;;;;;;9.61;nan;101622.84;5055081;28;20060;-60
2022/05/29 04:01:27;;;;;;;7.32;2.67;;;;;;;9.17;nan;101545.59;5045035;28;20033;-53
2022/05/29 04:03:53;;;;;;;9.00;3.05;;;;;;;9.62;nan;101623.72;5068992;28;20043;-58
2022/05/29 04:06:23;;;;;;;10.00;2.28;;;;;;;9.65;nan;101620.19;5039731;28;20504;-56
2022/05/29 04:14:17;;;;;;;5.22;2.58;;;;;;;9.67;nan;101616.63;5024617;28;20047;-58
2022/05/29 04:16:42;;;;;;;10.60;2.42;;;;;;;9.37;nan;101554.91;5054615;28;20037;-57
2022/05/29 04:19:08;;;;;;;6.78;2.90;;;;;;;9.72;nan;101617.41;5054573;28;20129;-54
2022/05/29 04:21:33;;;;;;;8.52;2.38;;;;;;;9.77;nan;101612.09;5053754;28;20522;-54
2022/05/29 04:23:58;;;;;;;7.45;2.20;;;;;;;9.78;nan;101616.47;5054012;28;20056;-56
2022/05/29 04:26:24;;;;;;;6.80;2.33;;;;;;;9.49;nan;101561.72;5054529;28;20033;-59
2022/05/29 04:28:49;;;;;;;10.40;2.88;;;;;;;9.82;nan;101607.63;5035793;28;20059;-57
2022/05/29 04:31:15;;;;;;;6.75;2.00;;;;;;;9.79;nan;101610.28;5054309;28;20072;-58
2022/05/29 04:33:40;;;;;;;5.03;1.85;;;;;;;9.79;nan;101613.81;5036364;28;20166;-56
2022/05/29 04:36:06;;;;;;;5.88;2.00;;;;;;;9.78;nan;101635.72;5054094;28;20477;-57
2022/05/29 04:38:31;;;;;;;8.30;1.30;;;;;;;9.31;nan;101560.25;5054415;28;20033;-59
2022/05/29 04:40:57;;;;;;;7.35;1.80;;;;;;;9.49;nan;101628.31;5036409;28;20543;-56
2022/05/29 04:43:23;;;;;;;8.48;1.77;;;;;;;8.88;nan;101522.41;5036334;28;20377;-57
2022/05/29 04:45:54;;;;;;;4.07;1.40;;;;;;;9.36;nan;101639.03;5019684;28;20090;-58
2022/05/29 04:48:19;;;;;;;4.70;1.60;;;;;;;9.39;nan;101617.97;5054597;28;20029;-58
2022/05/29 04:50:44;;;;;;;2.15;1.35;;;;;;;9.39;nan;101615.34;5054156;28;20060;-57
2022/05/29 04:53:10;;;;;;;6.40;2.10;;;;;;;9.47;nan;101623.97;5055890;28;20045;-52
2022/05/29 04:55:39;;;;;;;5.28;1.67;;;;;;;9.61;nan;101609.72;5053652;28;20093;-60
2022/05/29 04:58:04;;;;;;;4.57;1.52;;;;;;;9.24;nan;101539.38;5035684;28;20032;-60
2022/05/29 05:00:30;;;;;;;4.30;1.48;;;;;;;9.71;nan;101606.94;5053409;28;20029;-59
2022/05/29 05:02:55;;;;;;;6.43;1.75;;;;;;;9.71;nan;101614.81;5053482;28;20036;-58
2022/05/29 05:05:21;;;;;;;5.20;1.60;;;;;;;9.71;nan;101613.06;5053271;28;20041;-58
2022/05/29 05:07:46;;;;;;;3.85;1.58;;;;;;;9.65;nan;101602.66;5036027;28;20033;-56
2022/05/29 05:10:15;;;;;;;3.28;1.77;;;;;;;9.31;nan;101547.13;5019111;28;20048;-58
2022/05/29 05:12:42;;;;;;;7.03;1.85;;;;;;;9.55;nan;101601.06;5035793;28;20052;-56
2022/05/29 05:15:09;;;;;;;5.72;1.90;;;;;;;9.54;nan;101608.06;5053344;28;20396;-56
2022/05/29 05:17:34;;;;;;;5.90;2.28;;;;;;;9.62;nan;101600.06;5053135;28;20490;-55
2022/05/29 05:20:00;;;;;;;8.10;2.10;;;;;;;9.72;nan;101603.44;5053419;28;20065;-58
2022/05/29 05:22:25;;;;;;;4.32;1.73;;;;;;;9.86;nan;101609.31;5052900;28;20044;-58
2022/05/29 05:24:51;;;;;;;6.18;1.98;;;;;;;9.58;nan;101544.06;5053576;28;20037;-59
2022/05/29 05:27:16;;;;;;;5.20;2.08;;;;;;;9.65;nan;101549.22;5035281;28;20036;-59
2022/05/29 05:29:43;;;;;;;6.03;2.03;;;;;;;9.96;nan;101600.34;5035194;28;20032;-59
2022/05/29 05:32:08;;;;;;;6.22;2.47;;;;;;;9.93;nan;101603.91;5053184;28;20536;-59
2022/05/29 05:34:34;;;;;;;9.27;2.33;;;;;;;9.89;nan;101598.75;5019083;28;20033;-58
2022/05/29 05:36:59;;;;;;;6.28;2.47;;;;;;;9.88;nan;101594.38;5053087;28;20519;-58
2022/05/29 05:39:25;;;;;;;6.50;2.20;;;;;;;9.53;nan;101540.66;5052455;28;20033;-57
2022/05/29 05:41:50;;;;;;;6.75;2.60;;;;;;;9.83;nan;101580.44;5052596;28;20040;-59
2022/05/29 05:44:15;;;;;;;8.38;2.60;;;;;;;9.92;nan;101610.09;5052757;28;20124;-57
2022/05/29 05:46:46;;;;;;;5.32;2.22;;;;;;;9.56;nan;101550.22;5053136;28;20139;-59
2022/05/29 05:49:12;;;;;;;9.85;2.33;;;;;;;9.63;nan;101573.75;5053041;28;20546;-58
2022/05/29 05:51:37;;;;;;;5.80;1.95;;;;;;;9.83;nan;101598.84;5052883;28;20036;-59
2022/05/29 05:54:02;;;;;;;6.22;1.75;;;;;;;9.68;nan;101607.84;5052429;28;20057;-57
2022/05/29 05:56:28;;;;;;;5.40;1.70;;;;;;;9.74;nan;101604.25;5034579;28;20075;-59
2022/05/29 05:58:53;;;;;;;5.22;2.03;;;;;;;9.82;nan;101594.47;5052139;28;20345;-58
2022/05/29 06:01:18;;;;;;;11.77;2.25;;;;;;;9.60;nan;101534.38;5034921;28;20040;-58
2022/05/29 06:03:44;;;;;;;3.08;1.80;;;;;;;10.16;nan;101593.00;5052341;28;20120;-58
2022/05/29 06:06:10;;;;;;;3.78;2.22;;;;;;;10.39;nan;101603.09;5035023;28;20033;-59
2022/05/29 06:08:35;;;;;;;7.38;2.05;;;;;;;10.50;nan;101561.66;5034375;28;20060;-59
2022/05/29 06:11:01;;;;;;;9.18;1.77;;;;;;;10.65;nan;101519.19;5052552;28;20032;-56
2022/05/29 06:13:26;;;;;;;5.63;2.38;;;;;;;11.41;nan;101578.03;5034202;28;20465;-58
2022/05/29 06:15:52;;;;;;;7.68;2.22;;;;;;;11.50;nan;101572.53;5034575;28;20037;-59
2022/05/29 06:18:18;;;;;;;8.32;2.08;;;;;;;11.39;nan;101530.59;5052454;28;20468;-58
2022/05/29 06:20:44;;;;;;;9.02;2.33;;;;;;;11.88;nan;101593.56;5052493;28;20032;-57
2022/05/29 06:23:10;;;;;;;7.45;2.28;;;;;;;11.88;nan;101585.63;5052216;28;20120;-61
2022/05/29 06:25:38;;;;;;;8.18;2.30;;;;;;;11.90;nan;101578.56;5052198;28;20044;-59
2022/05/29 06:28:04;;;;;;;4.18;1.98;;;;;;;12.05;nan;101575.53;5052084;28;20499;-60
2022/05/29 06:30:30;;;;;;;6.22;2.33;;;;;;;12.37;nan;101579.94;5052443;28;20122;-59
2022/05/29 06:32:55;;;;;;;4.82;1.95;;;;;;;12.51;nan;101580.41;5017327;28;20056;-57
2022/05/29 06:35:21;;;;;;;8.38;2.55;;;;;;;12.34;nan;101604.66;5052364;28;20025;-55
2022/05/29 06:37:47;;;;;;;4.93;1.60;;;;;;;11.77;nan;101601.75;5051979;28;20112;-59
2022/05/29 06:40:13;;;;;;;5.18;1.60;;;;;;;11.39;nan;101598.28;5034450;28;20505;-61
2022/05/29 06:42:38;;;;;;;7.60;1.60;;;;;;;10.93;nan;101601.09;5051430;28;20036;-60
2022/05/29 06:45:04;;;;;;;8.27;1.63;;;;;;;9.86;nan;101435.78;5034343;28;20037;-58
2022/05/29 06:47:29;;;;;;;6.70;2.42;;;;;;;10.76;nan;101597.94;5033358;28;20062;-58
2022/05/29 06:49:55;;;;;;;6.20;1.70;;;;;;;10.82;nan;101600.47;5051913;28;20068;-58
2022/05/29 06:52:20;;;;;;;5.47;2.00;;;;;;;11.00;nan;101600.06;5051372;28;20050;-59
2022/05/29 06:54:46;;;;;;;3.30;1.50;;;;;;;10.67;nan;101533.19;5051882;28;20455;-58
2022/05/29 06:57:12;;;;;;;5.05;1.63;;;;;;;11.00;nan;101590.41;5017125;28;20328;-59
2022/05/29 07:07:55;;;;;;;4.53;1.77;;;;;;;10.06;nan;101621.22;5036455;28;20471;-58
2022/05/29 07:10:20;;;;;;;4.68;1.60;;;;;;;9.71;nan;101585.91;5052040;28;20029;-58
2022/05/29 07:12:46;;;;;;;7.90;1.90;;;;;;;9.82;nan;101623.41;5047109;28;20140;-60
2022/05/29 07:15:11;;;;;;;4.30;1.58;;;;;;;9.70;nan;101602.56;5071926;28;20040;-59
2022/05/29 07:17:36;;;;;;;4.13;1.58;;;;;;;9.69;nan;101614.00;5071105;28;20048;-60
2022/05/29 07:20:05;;;;;;;9.52;2.00;;;;;;;9.71;nan;101604.31;5071387;28;20033;-57
2022/05/29 07:22:32;;;;;;;10.13;2.30;;;;;;;9.70;nan;101597.31;5071569;28;20036;-58
2022/05/29 07:24:57;;;;;;;10.13;3.33;;;;;;;9.74;nan;101594.63;5053811;28;20033;-60
2022/05/29 07:27:23;;;;;;;4.25;2.08;;;;;;;9.84;nan;101595.31;5053503;28;20028;-58
2022/05/29 07:29:48;;;;;;;8.13;2.17;;;;;;;9.89;nan;101594.34;5071472;28;20556;-59
2022/05/29 07:32:13;;;;;;;9.48;3.10;;;;;;;9.67;nan;101539.53;5036912;28;20043;-60
2022/05/29 07:34:43;;;;;;;9.90;3.10;;;;;;;9.65;nan;101526.41;5053592;28;20459;-60
2022/05/29 07:37:11;;;;;;;11.77;3.25;;;;;;;10.02;nan;101579.19;5071317;28;20068;-60
2022/05/29 07:39:40;;;;;;;7.30;2.75;;;;;;;10.15;nan;101570.22;5071298;28;20082;-59
2022/05/29 07:44:51;;;;;;;8.25;3.15;;;;;;;10.64;nan;101572.75;5071246;28;20533;-60
2022/05/29 07:47:16;;;;;;;8.63;2.65;;;;;;;10.66;nan;101573.56;5071161;28;20037;-61
2022/05/29 07:49:42;;;;;;;7.78;2.58;;;;;;;10.69;nan;101565.59;5071443;28;20043;-61
2022/05/29 07:52:07;;;;;;;11.55;3.33;;;;;;;10.41;nan;101499.53;5071107;28;20037;-60
2022/05/29 07:54:32;;;;;;;8.82;2.85;;;;;;;10.77;nan;101576.00;5053462;28;20032;-61
2022/05/29 07:56:58;;;;;;;13.45;3.15;;;;;;;10.65;nan;101577.13;5071109;28;20041;-56
2022/05/29 07:59:23;;;;;;;8.38;2.53;;;;;;;10.57;nan;101582.53;5071497;28;20036;-61
2022/05/29 08:01:48;;;;;;;8.70;3.40;;;;;;;10.06;nan;101526.53;5071173;28;20028;-61
2022/05/29 08:04:15;;;;;;;12.45;3.30;;;;;;;10.42;nan;101598.63;5073387;28;20033;-62
2022/05/29 08:06:40;;;;;;;11.82;2.85;;;;;;;10.32;nan;101580.44;5057112;28;20028;-62
2022/05/29 08:09:06;;;;;;;9.10;2.20;;;;;;;10.04;nan;101520.41;5074850;28;20032;-60
2022/05/29 08:11:31;;;;;;;10.93;2.53;;;;;;;10.20;nan;101533.31;5057093;28;20387;-61
2022/05/29 08:13:56;;;;;;;10.57;2.35;;;;;;;10.44;nan;101577.56;5056793;28;20119;-59
2022/05/29 08:16:22;;;;;;;7.03;2.13;;;;;;;10.52;nan;101571.25;5074475;28;20036;-61
2022/05/29 08:18:47;;;;;;;7.97;2.83;;;;;;;10.38;nan;101525.91;5074559;28;20036;-61
2022/05/29 08:21:13;;;;;;;10.50;2.65;;;;;;;10.94;nan;101573.84;5074618;28;20060;-61
2022/05/29 08:23:38;;;;;;;6.75;2.45;;;;;;;11.78;nan;101560.41;5056583;28;20075;-60
2022/05/29 08:31:32;;;;;;;4.20;1.52;;;;;;;12.43;nan;101501.38;5074656;28;20040;-61
2022/05/29 08:33:57;;;;;;;5.57;1.77;;;;;;;12.60;nan;101568.72;5039850;28;20407;-62
2022/05/29 08:36:25;;;;;;;6.13;2.13;;;;;;;12.52;nan;101583.91;5074289;28;20035;-62
2022/05/29 08:38:55;;;;;;;7.88;2.03;;;;;;;12.53;nan;101598.81;5074308;28;20032;-61
2022/05/29 08:41:35;;;;;;;10.65;1.83;;;;;;;12.56;nan;101590.81;5074141;28;20089;-61
2022/05/29 08:44:12;;;;;;;5.50;1.83;;;;;;;12.53;nan;101597.06;5073911;28;20032;-61
2022/05/29 08:46:43;;;;;;;6.63;1.33;;;;;;;12.38;nan;101544.69;5073691;28;20044;-59
2022/05/29 08:49:11;;;;;;;5.07;0.93;;;;;;;12.65;nan;101588.78;5073733;28;20060;-61
2022/05/29 08:51:46;;;;;;;4.30;0.75;;;;;;;12.81;nan;101607.72;5055896;28;20494;-62
2022/05/29 08:54:14;;;;;;;1.67;0.63;;;;;;;13.61;nan;101578.75;5073774;28;20438;-60
2022/05/29 08:56:39;;;;;;;2.80;0.80;;;;;;;14.51;nan;101606.50;5056063;28;20029;-59
2022/05/29 08:59:14;;;;;;;1.17;0.30;;;;;;;14.80;nan;101617.81;5073965;28;20144;-62
2022/05/29 09:02:15;;;;;;;1.83;0.50;;;;;;;15.20;nan;101633.94;5073850;28;20032;-59
2022/05/29 09:04:53;;;;;;;1.70;0.50;;;;;;;15.11;nan;101576.81;5038861;28;20119;-59
2022/05/29 09:07:20;;;;;;;1.20;0.52;;;;;;;15.04;nan;101585.06;5039347;28;20055;-60
2022/05/29 09:09:54;;;;;;;0.88;0.50;;;;;;;14.31;nan;101581.59;5055592;28;20036;-61
2022/05/29 09:12:26;;;;;;;1.50;0.45;;;;;;;14.04;nan;101594.91;5073729;28;20036;-59
2022/05/29 09:15:27;;;;;;;1.63;0.50;;;;;;;13.99;nan;101609.22;5073299;28;20032;-60
2022/05/29 09:17:54;;;;;;;2.47;0.73;;;;;;;13.52;nan;101619.59;5073636;28;20035;-61
2022/05/29 09:20:26;;;;;;;2.15;0.50;;;;;;;13.49;nan;101601.19;5073459;28;20025;-59
2022/05/29 09:22:55;;;;;;;2.13;0.60;;;;;;;13.53;nan;101609.88;5072485;28;20528;-61
2022/05/29 09:25:33;;;;;;;1.35;0.65;;;;;;;14.30;nan;101598.44;5073313;28;20409;-60
2022/05/29 09:28:08;;;;;;;3.13;0.70;;;;;;;15.06;nan;101602.63;5073363;28;20112;-59
2022/05/29 09:30:33;;;;;;;3.75;0.80;;;;;;;15.73;nan;101558.34;5073404;28;20063;-59
2022/05/29 09:33:01;;;;;;;4.97;0.90;;;;;;;16.47;nan;101558.66;5073188;28;20059;-60
2022/05/29 09:35:39;;;;;;;1.85;0.57;;;;;;;16.77;nan;101618.44;5055104;28;20028;-60
2022/05/29 09:38:23;;;;;;;0.68;0.45;;;;;;;16.44;nan;101612.81;5055474;28;20074;-57
2022/05/29 09:41:13;;;;;;;1.17;0.82;;;;;;;16.29;nan;101613.47;5073188;28;20033;-59
2022/05/29 09:43:39;;;;;;;4.10;1.00;;;;;;;15.46;nan;101561.28;5054742;28;20037;-58
2022/05/29 09:46:21;;;;;;;2.97;1.30;;;;;;;15.50;nan;101623.94;5072865;28;20287;-57
2022/05/29 09:51:48;;;;;;;3.42;1.00;;;;;;;13.30;nan;101599.19;5057931;28;20160;-60
2022/05/29 09:54:24;;;;;;;4.47;1.00;;;;;;;12.61;nan;101560.72;5072328;28;20051;-59
2022/05/29 09:56:50;;;;;;;5.15;1.02;;;;;;;12.51;nan;101583.03;5072580;28;20032;-60
2022/05/29 09:59:19;;;;;;;1.90;0.65;;;;;;;11.83;nan;101593.69;5072685;28;20037;-60
2022/05/29 10:01:46;;;;;;;2.67;0.95;;;;;;;11.73;nan;101589.53;5072616;28;20033;-60
2022/05/29 10:04:22;;;;;;;3.88;1.10;;;;;;;11.80;nan;101572.66;5054409;28;20044;-60
2022/05/29 10:06:53;;;;;;;6.82;1.48;;;;;;;11.90;nan;101507.34;5072456;28;20028;-58
2022/05/29 10:09:23;;;;;;;5.32;1.65;;;;;;;12.71;nan;101572.75;5072475;28;20552;-59
2022/05/29 10:11:53;;;;;;;9.95;1.80;;;;;;;12.69;nan;101519.13;5072585;28;20057;-61
2022/05/29 10:14:21;;;;;;;5.25;1.55;;;;;;;13.27;nan;101592.22;5054743;28;20037;-60
2022/05/29 10:16:49;;;;;;;14.48;2.00;;;;;;;13.57;nan;101579.78;5072479;28;20035;-59
2022/05/29 10:19:31;;;;;;;7.03;1.75;;;;;;;13.83;nan;101565.69;5038014;28;20391;-60
2022/05/29 10:21:57;;;;;;;8.18;1.23;;;;;;;13.20;nan;101580.09;5054761;28;20028;-60
2022/05/29 10:24:37;;;;;;;5.88;1.42;;;;;;;12.63;nan;101539.56;5072178;28;20376;-59
2022/05/29 10:27:06;;;;;;;9.60;1.77;;;;;;;12.21;nan;101537.25;5054666;28;20502;-61
2022/05/29 10:29:35;;;;;;;10.45;1.80;;;;;;;12.28;nan;101525.63;5072199;28;20486;-61
2022/05/29 10:32:05;;;;;;;6.78;2.05;;;;;;;12.74;nan;101572.69;5072128;28;20132;-60
2022/05/29 10:34:37;;;;;;;9.70;1.95;;;;;;;13.23;nan;101581.75;5054752;28;20040;-59
2022/05/29 10:37:30;;;;;;;8.60;2.03;;;;;;;13.72;nan;101576.59;5054379;28;20418;-59
2022/05/29 10:40:12;;;;;;;7.00;1.60;;;;;;;14.16;nan;101593.59;5042046;28;20404;-59
2022/05/29 10:42:41;;;;;;;7.45;1.75;;;;;;;14.22;nan;101597.81;5072214;28;20029;-59
2022/05/29 10:45:08;;;;;;;5.78;1.52;;;;;;;13.91;nan;101608.63;5072249;28;20044;-60
2022/05/29 10:47:41;;;;;;;8.70;2.25;;;;;;;13.49;nan;101610.88;5054453;28;20040;-59
2022/05/29 10:50:21;;;;;;;6.20;1.30;;;;;;;12.97;nan;101604.56;5072253;28;20041;-61
2022/05/29 10:53:22;;;;;;;6.25;1.40;;;;;;;12.85;nan;101591.72;5064674;28;20054;-61
2022/05/29 10:55:54;;;;;;;;;;;;;;;13.31;nan;101587.69;5038853;28;20072;-60
2022/05/29 10:58:45;;;;;;;7.82;1.58;;;;;;;13.54;nan;101601.06;5090842;28;19912;-61
2022/05/29 11:04:40;;;;;;;3.42;1.05;;;;;;;13.46;nan;101558.09;5091922;28;20039;-58
2022/05/29 11:07:17;;;;;;;8.02;1.30;;;;;;;14.11;nan;101606.16;5091959;28;20176;-57
2022/05/29 11:09:57;;;;;;;5.70;0.95;;;;;;;14.81;nan;101612.44;5091887;28;20135;-59
2022/05/29 11:12:37;;;;;;;6.07;1.27;;;;;;;15.26;nan;101623.09;5092113;28;20178;-60
2022/05/29 11:15:21;;;;;;;11.10;1.75;;;;;;;15.73;nan;101592.00;5090828;28;20356;-59
2022/05/29 11:17:53;;;;;;;5.82;1.40;;;;;;;15.86;nan;101613.59;5091887;28;20419;-58
2022/05/29 11:20:49;;;;;;;6.18;1.73;;;;;;;16.32;nan;101616.88;5092097;28;20036;-52
2022/05/29 11:23:40;;;;;;;6.47;1.33;;;;;;;16.02;nan;101604.94;5092027;28;20036;-58
2022/05/29 11:26:18;;;;;;;4.28;1.08;;;;;;;15.70;nan;101626.66;5091766;28;20028;-56
2022/05/29 11:29:19;;;;;;;4.80;1.00;;;;;;;14.70;nan;101621.72;5090725;28;20028;-57
2022/05/29 11:32:01;;;;;;;4.47;1.08;;;;;;;14.46;nan;101608.44;5009302;28;20038;-56
2022/05/29 11:34:41;;;;;;;5.30;1.45;;;;;;;15.33;nan;101591.84;5082476;28;20039;-56
2022/05/29 11:37:41;;;;;;;7.30;1.90;;;;;;;15.17;nan;101597.78;5090611;28;20028;-58
2022/05/29 11:40:17;;;;;;;4.78;1.00;;;;;;;15.00;nan;101549.00;5095355;28;20024;-56
2022/05/29 11:43:33;;;;;;;4.10;1.20;;;;;;;14.98;nan;101595.91;5095654;28;20039;-57
2022/05/29 11:52:01;;;;;;;5.28;1.17;;;;;;;14.59;nan;101542.66;5094453;28;20038;-58
2022/05/29 11:54:31;;;;;;;3.95;1.10;;;;;;;14.39;nan;101582.25;5095513;28;20043;-63
2022/05/29 11:57:07;;;;;;;2.40;0.95;;;;;;;14.04;nan;101584.31;5095088;28;20115;-63
2022/05/29 11:59:42;;;;;;;5.63;1.10;;;;;;;13.77;nan;101580.00;5076958;28;20039;-63
2022/05/29 12:02:18;;;;;;;7.90;1.33;;;;;;;13.62;nan;101582.28;5077323;28;20044;-62
2022/05/29 12:04:50;;;;;;;3.67;1.00;;;;;;;13.62;nan;101590.22;5095058;28;20028;-63
2022/05/29 12:07:23;;;;;;;4.53;1.15;;;;;;;14.04;nan;101581.66;5095241;28;20402;-63
2022/05/29 12:10:00;;;;;;;2.72;1.00;;;;;;;14.37;nan;101576.13;5094164;28;20040;-61
2022/05/29 12:12:32;;;;;;;3.70;0.85;;;;;;;14.86;nan;101524.78;5076564;28;20054;-60
2022/05/29 12:15:04;;;;;;;6.30;1.08;;;;;;;15.49;nan;101532.00;5077154;28;20028;-62
2022/05/29 12:17:33;;;;;;;5.75;1.23;;;;;;;15.97;nan;101593.63;5095053;28;20031;-64
2022/05/29 12:20:06;;;;;;;4.65;1.45;;;;;;;15.81;nan;101589.91;5076851;28;20028;-61
2022/05/29 12:22:37;;;;;;;3.60;1.00;;;;;;;15.69;nan;101562.06;5076554;28;20028;-61
2022/05/29 12:25:03;;;;;;;4.80;0.75;;;;;;;15.79;nan;101546.59;5076685;28;20040;-61
2022/05/29 12:27:28;;;;;;;4.45;0.90;;;;;;;16.20;nan;101588.16;5094532;28;20067;-61
2022/05/29 12:29:57;;;;;;;4.10;1.00;;;;;;;16.09;nan;101601.06;5076475;28;20051;-61
2022/05/29 12:32:25;;;;;;;3.72;1.10;;;;;;;15.91;nan;101582.38;5094605;28;20032;-62
2022/05/29 12:34:54;;;;;;;5.15;1.00;;;;;;;15.39;nan;101542.06;5076292;28;20032;-60
2022/05/29 12:37:48;;;;;;;5.25;1.20;;;;;;;15.03;nan;101525.84;5094746;28;20032;-61
2022/05/29 12:40:51;;;;;;;6.60;1.63;;;;;;;15.14;nan;101583.78;5076315;28;20036;-62